createdAt,value
2023-05-12T00:01:17.252Z,7.78
2023-05-12T00:03:44.128Z,6.97
2023-05-12T00:06:11.326Z,5.97
2023-05-12T00:08:38.034Z,5.43
2023-05-12T00:11:04.583Z,7.30
2023-05-12T00:13:31.341Z,7.40
2023-05-12T00:15:59.363Z,7.95
2023-05-12T00:18:28.198Z,6.17
2023-05-12T00:20:55.231Z,7.13
2023-05-12T00:23:22.699Z,6.80
2023-05-12T00:25:49.891Z,5.75
2023-05-12T00:28:17.819Z,6.25
2023-05-12T00:30:44.358Z,7.73
2023-05-12T00:33:11.129Z,6.90
2023-05-12T00:35:37.552Z,6.03
2023-05-12T00:38:04.035Z,6.10
2023-05-12T00:40:30.501Z,7.05
2023-05-12T00:42:57.024Z,5.87
2023-05-12T00:45:23.823Z,6.03
2023-05-12T00:47:52.342Z,4.75
2023-05-12T00:50:19.180Z,5.80
2023-05-12T00:52:47.072Z,6.20
2023-05-12T00:55:13.506Z,5.13
2023-05-12T00:57:41.105Z,5.15
2023-05-12T01:00:08.824Z,6.32
2023-05-12T01:02:36.532Z,5.22
2023-05-12T01:05:04.219Z,4.75
2023-05-12T01:07:32.998Z,6.43
2023-05-12T01:09:59.605Z,4.38
2023-05-12T01:12:27.146Z,5.65
2023-05-12T01:14:56.259Z,5.32
2023-05-12T01:17:32.085Z,5.03
2023-05-12T01:20:04.656Z,5.77
2023-05-12T01:22:33.551Z,5.03
2023-05-12T01:25:09.831Z,4.53
2023-05-12T01:27:39.705Z,6.53
2023-05-12T01:30:06.966Z,5.55
2023-05-12T01:32:34.444Z,4.47
2023-05-12T01:35:00.940Z,5.80
2023-05-12T01:37:27.536Z,5.03
2023-05-12T01:39:55.079Z,5.70
2023-05-12T01:42:21.625Z,5.05
2023-05-12T01:44:48.080Z,5.87
2023-05-12T01:47:15.957Z,5.53
2023-05-12T01:49:42.733Z,5.60
2023-05-12T01:52:09.253Z,5.15
2023-05-12T01:54:36.067Z,4.68
2023-05-12T01:57:02.667Z,4.10
2023-05-12T01:59:28.996Z,3.92
2023-05-12T02:01:55.550Z,4.45
2023-05-12T02:04:22.174Z,3.92
2023-05-12T02:06:48.555Z,4.57
2023-05-12T02:09:15.129Z,3.90
2023-05-12T02:11:41.782Z,4.25
2023-05-12T02:14:08.156Z,4.25
2023-05-12T02:16:34.618Z,4.47
2023-05-12T02:19:01.361Z,4.00
2023-05-12T02:21:28.061Z,5.30
2023-05-12T02:23:54.495Z,3.90
2023-05-12T02:26:21.155Z,4.57
2023-05-12T02:28:47.799Z,3.85
2023-05-12T02:31:14.230Z,3.50
2023-05-12T02:33:40.596Z,3.53
2023-05-12T02:36:07.536Z,4.10
2023-05-12T02:38:34.122Z,4.38
2023-05-12T02:41:01.037Z,4.05
2023-05-12T02:43:27.731Z,4.82
2023-05-12T02:45:54.843Z,5.33
2023-05-12T02:48:21.317Z,4.75
2023-05-12T02:50:47.664Z,4.68
2023-05-12T02:53:14.063Z,6.15
2023-05-12T02:55:40.575Z,5.20
2023-05-12T02:58:07.081Z,5.50
2023-05-12T03:00:33.518Z,5.28
2023-05-12T03:03:00.081Z,5.03
2023-05-12T03:05:26.812Z,5.65
2023-05-12T03:07:53.227Z,5.68
2023-05-12T03:10:19.942Z,7.27
2023-05-12T03:12:46.585Z,6.78
2023-05-12T03:15:12.965Z,6.05
2023-05-12T03:17:39.509Z,9.32
2023-05-12T03:20:06.867Z,9.98
2023-05-12T03:22:33.752Z,9.43
2023-05-12T03:25:00.176Z,9.88
2023-05-12T03:27:26.791Z,9.18
2023-05-12T03:29:53.272Z,13.30
2023-05-12T03:32:19.734Z,10.80
2023-05-12T03:34:46.213Z,9.20
2023-05-12T03:37:12.652Z,11.15
2023-05-12T03:39:39.088Z,10.55
2023-05-12T03:42:05.986Z,9.95
2023-05-12T03:44:32.396Z,12.82
2023-05-12T03:46:58.903Z,14.30
2023-05-12T03:49:25.447Z,14.05
2023-05-12T03:51:51.995Z,17.23
2023-05-12T03:54:18.437Z,12.93
2023-05-12T03:56:44.952Z,16.35
2023-05-12T03:59:12.083Z,15.33
2023-05-12T04:01:38.836Z,16.10
2023-05-12T04:04:05.294Z,17.05
2023-05-12T04:06:31.742Z,15.73
2023-05-12T04:08:58.805Z,15.50
2023-05-12T04:11:25.261Z,19.13
2023-05-12T04:13:51.660Z,17.80
2023-05-12T04:16:18.287Z,14.52
2023-05-12T04:18:44.737Z,17.55
2023-05-12T04:21:11.290Z,18.88
2023-05-12T04:23:37.723Z,18.30
2023-05-12T04:26:05.216Z,18.02
2023-05-12T04:28:32.017Z,21.40
2023-05-12T04:31:04.927Z,22.38
2023-05-12T04:33:31.538Z,16.88
2023-05-12T04:35:58.262Z,17.53
2023-05-12T04:38:24.777Z,20.13
2023-05-12T04:40:51.241Z,17.70
2023-05-12T04:45:47.246Z,21.55
2023-05-12T04:48:13.616Z,21.53
2023-05-12T04:50:40.022Z,21.15
2023-05-12T04:53:06.422Z,22.00
2023-05-12T04:55:32.930Z,23.42
2023-05-12T04:57:59.326Z,21.92
2023-05-12T05:00:25.787Z,20.37
2023-05-12T05:02:52.396Z,25.27
2023-05-12T05:05:19.058Z,25.67
2023-05-12T05:07:45.958Z,24.65
2023-05-12T05:10:12.598Z,23.08
2023-05-12T05:12:38.988Z,24.30
2023-05-12T05:15:06.194Z,23.83
2023-05-12T05:17:32.685Z,23.35
2023-05-12T05:19:59.851Z,22.77
2023-05-12T05:22:27.302Z,26.52
2023-05-12T05:24:53.760Z,25.30
2023-05-12T05:27:20.637Z,21.80
2023-05-12T05:29:47.173Z,24.23
2023-05-12T05:32:13.664Z,22.52
2023-05-12T05:34:40.197Z,22.40
2023-05-12T05:37:06.642Z,24.87
2023-05-12T05:39:33.143Z,24.02
2023-05-12T05:41:59.607Z,25.75
2023-05-12T05:44:26.045Z,26.25
2023-05-12T05:46:52.576Z,24.27
2023-05-12T05:49:19.672Z,23.50
2023-05-12T05:51:46.030Z,23.30
2023-05-12T05:54:12.363Z,26.70
2023-05-12T05:56:38.826Z,25.35
2023-05-12T05:59:05.492Z,24.45
2023-05-12T06:01:32.839Z,26.40
2023-05-12T06:03:59.692Z,28.25
2023-05-12T06:06:26.307Z,25.55
2023-05-12T06:08:55.830Z,25.05
2023-05-12T06:11:22.363Z,25.20
2023-05-12T06:13:48.753Z,26.60
2023-05-12T06:16:15.115Z,27.88
2023-05-12T06:18:41.536Z,26.67
2023-05-12T06:21:08.112Z,26.52
2023-05-12T06:23:34.495Z,24.30
2023-05-12T06:26:00.854Z,27.20
2023-05-12T06:28:27.342Z,24.00
2023-05-12T06:30:53.848Z,23.30
2023-05-12T06:33:20.209Z,28.00
2023-05-12T06:35:46.682Z,25.55
2023-05-12T06:38:13.014Z,25.00
2023-05-12T06:40:39.558Z,23.67
2023-05-12T06:43:06.026Z,22.48
2023-05-12T06:45:32.536Z,29.67
2023-05-12T06:47:58.984Z,24.05
2023-05-12T06:50:25.498Z,28.10
2023-05-12T06:52:51.925Z,24.33
2023-05-12T06:55:20.680Z,23.85
2023-05-12T06:57:47.582Z,25.98
2023-05-12T07:00:14.581Z,26.75
2023-05-12T07:02:41.254Z,23.53
2023-05-12T07:05:08.201Z,25.60
2023-05-12T07:07:36.026Z,22.77
2023-05-12T07:10:02.431Z,22.88
2023-05-12T07:12:28.823Z,25.63
2023-05-12T07:14:55.168Z,25.40
2023-05-12T07:17:21.747Z,23.88
2023-05-12T07:19:48.358Z,24.23
2023-05-12T07:22:14.796Z,24.88
2023-05-12T07:24:41.617Z,23.60
2023-05-12T07:27:08.197Z,26.43
2023-05-12T07:29:34.929Z,24.05
2023-05-12T07:32:01.400Z,23.55
2023-05-12T07:34:27.913Z,22.20
2023-05-12T07:36:54.320Z,19.48
2023-05-12T07:39:23.653Z,21.53
2023-05-12T07:41:51.114Z,23.13
2023-05-12T07:44:17.547Z,19.90
2023-05-12T07:46:44.084Z,20.60
2023-05-12T07:49:10.461Z,21.17
2023-05-12T07:51:37.085Z,18.83
2023-05-12T07:54:04.815Z,18.67
2023-05-12T07:56:31.259Z,19.30
2023-05-12T07:58:57.688Z,20.63
2023-05-12T08:01:24.287Z,18.00
2023-05-12T08:03:51.479Z,16.33
2023-05-12T08:06:18.438Z,18.13
2023-05-12T08:08:45.223Z,18.00
2023-05-12T08:11:12.649Z,15.52
2023-05-12T08:13:39.486Z,14.93
2023-05-12T08:16:06.248Z,15.43
2023-05-12T08:18:32.660Z,14.35
2023-05-12T08:20:59.045Z,16.30
2023-05-12T08:23:25.552Z,15.55
2023-05-12T08:25:51.981Z,16.40
2023-05-12T08:28:18.478Z,15.97
2023-05-12T08:30:45.524Z,15.95
2023-05-12T08:33:12.627Z,13.20
2023-05-12T08:35:39.595Z,13.38
2023-05-12T08:38:06.307Z,17.10
2023-05-12T08:40:37.960Z,13.90
2023-05-12T08:43:14.168Z,14.30
2023-05-12T08:45:41.071Z,14.98
2023-05-12T08:48:10.898Z,14.35
2023-05-12T08:50:38.888Z,14.43
2023-05-12T08:53:10.401Z,14.53
2023-05-12T08:55:37.104Z,11.40
2023-05-12T08:58:05.066Z,13.40
2023-05-12T09:00:34.319Z,13.90
2023-05-12T09:03:02.223Z,11.15
2023-05-12T09:05:30.759Z,10.90
2023-05-12T09:08:00.477Z,11.80
2023-05-12T09:10:35.156Z,11.75
2023-05-12T09:13:21.777Z,13.32
2023-05-12T09:15:48.868Z,11.73
2023-05-12T09:18:15.410Z,11.90
2023-05-12T09:20:42.563Z,11.15
2023-05-12T09:23:16.642Z,9.65
2023-05-12T09:25:43.206Z,9.10
2023-05-12T09:28:09.751Z,8.10
2023-05-12T09:30:38.291Z,6.63
2023-05-12T09:33:06.692Z,8.20
2023-05-12T09:35:38.555Z,6.03
2023-05-12T09:38:14.542Z,6.05
2023-05-12T09:40:41.040Z,5.60
2023-05-12T09:43:08.202Z,5.77
2023-05-12T09:45:36.381Z,6.20
2023-05-12T09:48:10.823Z,6.57
2023-05-12T09:50:51.398Z,6.40
2023-05-12T09:53:19.348Z,5.72
2023-05-12T09:55:47.296Z,5.37
2023-05-12T09:58:16.290Z,6.53
2023-05-12T10:01:12.854Z,7.13
2023-05-12T10:03:31.619Z,7.07
2023-05-12T10:06:01.462Z,6.00
2023-05-12T10:08:33.909Z,6.23
2023-05-12T10:11:02.351Z,4.93
2023-05-12T10:13:29.390Z,6.63
2023-05-12T10:15:57.583Z,5.03
2023-05-12T10:18:24.741Z,5.75
2023-05-12T10:20:53.547Z,5.23
2023-05-12T10:23:20.207Z,4.57
2023-05-12T10:25:47.732Z,4.78
2023-05-12T10:28:14.188Z,5.53
2023-05-12T10:30:41.932Z,4.63
2023-05-12T10:33:11.314Z,5.57
2023-05-12T10:35:40.050Z,3.90
2023-05-12T10:38:17.635Z,6.95
2023-05-12T10:40:53.454Z,4.97
2023-05-12T10:43:24.577Z,3.35
2023-05-12T10:46:15.999Z,3.67
2023-05-12T10:49:13.004Z,5.78
2023-05-12T10:51:42.357Z,3.85
2023-05-12T10:54:11.246Z,4.55
2023-05-12T10:56:38.377Z,3.60
2023-05-12T10:59:31.920Z,4.90
2023-05-12T11:02:04.062Z,3.45
2023-05-12T11:04:37.970Z,5.75
2023-05-12T11:07:06.208Z,4.03
2023-05-12T11:09:36.567Z,3.05
2023-05-12T11:12:08.437Z,2.57
2023-05-12T11:14:36.423Z,2.55
2023-05-12T11:17:03.149Z,2.88
2023-05-12T11:19:30.466Z,3.88
2023-05-12T11:21:56.937Z,3.13
2023-05-12T11:24:23.883Z,3.70
2023-05-12T11:26:52.009Z,3.80
2023-05-12T11:29:19.888Z,4.03
2023-05-12T11:31:53.320Z,4.18
2023-05-12T11:34:24.107Z,2.80
2023-05-12T11:36:52.792Z,4.93
2023-05-12T11:39:24.810Z,4.78
2023-05-12T11:41:56.821Z,2.42
2023-05-12T11:44:32.509Z,4.63
2023-05-12T11:47:11.180Z,2.88
2023-05-12T11:49:51.479Z,3.47
2023-05-12T11:52:19.761Z,4.57
2023-05-12T11:54:55.840Z,2.90
2023-05-12T11:57:29.627Z,3.10
2023-05-12T12:00:07.649Z,5.50
2023-05-12T12:02:36.667Z,3.97
2023-05-12T12:05:03.487Z,4.47
2023-05-12T12:07:34.883Z,3.40
2023-05-12T12:10:12.669Z,2.60
2023-05-12T12:12:39.511Z,3.47
2023-05-12T12:15:06.561Z,3.83
2023-05-12T12:17:32.987Z,2.42
2023-05-12T12:19:59.480Z,4.10
2023-05-12T12:22:26.015Z,3.17
2023-05-12T12:24:52.748Z,2.78
2023-05-12T12:27:19.236Z,3.17
2023-05-12T12:29:45.602Z,3.97
2023-05-12T12:32:12.107Z,3.65
2023-05-12T12:34:38.448Z,3.53
2023-05-12T12:37:05.461Z,3.45
2023-05-12T12:39:31.941Z,2.90
2023-05-12T12:41:58.908Z,3.45
2023-05-12T12:44:25.310Z,3.42
2023-05-12T12:46:51.761Z,5.15
2023-05-12T12:49:18.234Z,3.88
2023-05-12T12:51:46.595Z,6.17
2023-05-12T12:54:14.497Z,2.63
2023-05-12T12:56:40.959Z,3.00
2023-05-12T12:59:07.584Z,2.80
2023-05-12T13:01:34.202Z,4.22
2023-05-12T13:04:01.106Z,2.77
2023-05-12T13:06:27.678Z,3.00
2023-05-12T13:08:54.142Z,3.20
2023-05-12T13:11:20.564Z,3.03
2023-05-12T13:13:47.046Z,4.35
2023-05-12T13:16:13.581Z,3.73
2023-05-12T13:18:40.079Z,4.68
2023-05-12T13:21:06.522Z,4.03
2023-05-12T13:23:32.933Z,4.25
2023-05-12T13:25:59.382Z,3.75
2023-05-12T13:28:25.812Z,6.03
2023-05-12T13:30:52.737Z,5.97
2023-05-12T13:33:19.365Z,4.57
2023-05-12T13:35:45.800Z,3.65
2023-05-12T13:38:12.333Z,4.82
2023-05-12T13:40:38.770Z,3.67
2023-05-12T13:43:05.150Z,3.55
2023-05-12T13:45:31.588Z,3.90
2023-05-12T13:47:58.057Z,4.03
2023-05-12T13:50:24.562Z,4.35
2023-05-12T13:52:50.967Z,4.93
2023-05-12T13:55:21.404Z,3.47
2023-05-12T13:57:48.891Z,3.80
2023-05-12T14:00:17.262Z,3.65
2023-05-12T14:02:43.886Z,3.72
2023-05-12T14:05:10.688Z,2.90
2023-05-12T14:07:37.134Z,2.90
2023-05-12T14:10:03.654Z,4.50
2023-05-12T14:12:30.142Z,3.83
2023-05-12T14:15:04.488Z,3.50
2023-05-12T14:17:38.575Z,4.30
2023-05-12T14:20:06.526Z,3.00
2023-05-12T14:22:33.471Z,4.53
2023-05-12T14:25:00.519Z,3.45
2023-05-12T14:27:27.004Z,3.92
2023-05-12T14:29:53.489Z,5.07
2023-05-12T14:32:19.989Z,7.00
2023-05-12T14:34:46.366Z,2.63
2023-05-12T14:37:12.771Z,5.10
2023-05-12T14:39:39.128Z,4.65
2023-05-12T14:42:05.758Z,3.17
2023-05-12T14:44:32.292Z,4.28
2023-05-12T14:46:58.768Z,3.90
2023-05-12T14:49:25.165Z,3.80
2023-05-12T14:51:51.590Z,4.63
2023-05-12T14:54:25.357Z,4.70
2023-05-12T14:56:52.481Z,4.47
2023-05-12T14:59:19.048Z,4.43
2023-05-12T15:01:45.527Z,3.15
2023-05-12T15:04:12.022Z,4.43
2023-05-12T15:06:38.389Z,4.97
2023-05-12T15:09:04.772Z,5.53
2023-05-12T15:11:31.179Z,3.95
2023-05-12T15:13:57.731Z,4.93
2023-05-12T15:16:26.187Z,3.53
2023-05-12T15:18:52.759Z,4.60
2023-05-12T15:21:19.231Z,4.20
2023-05-12T15:23:45.690Z,2.92
2023-05-12T15:28:41.373Z,3.58
2023-05-12T15:31:08.189Z,3.73
2023-05-12T15:33:34.815Z,3.63
2023-05-12T15:36:01.210Z,3.42
2023-05-12T15:38:27.607Z,3.95
2023-05-12T15:40:54.488Z,3.15
2023-05-12T15:43:20.866Z,5.13
2023-05-12T15:45:47.344Z,3.40
2023-05-12T15:48:13.928Z,5.72
2023-05-12T15:50:40.457Z,3.97
2023-05-12T15:53:07.063Z,5.78
2023-05-12T15:55:33.617Z,7.37
2023-05-12T15:58:01.206Z,4.53
2023-05-12T16:00:28.083Z,4.55
2023-05-12T16:02:54.866Z,5.75
2023-05-12T16:05:23.872Z,4.65
2023-05-12T16:07:50.453Z,5.33
2023-05-12T16:10:17.465Z,4.10
2023-05-12T16:12:45.829Z,4.35
2023-05-12T16:15:12.657Z,6.43
2023-05-12T16:17:39.161Z,4.05
2023-05-12T16:20:07.707Z,5.13
2023-05-12T16:22:34.397Z,3.90
2023-05-12T16:25:00.783Z,3.72
2023-05-12T16:27:27.162Z,6.18
2023-05-12T16:29:53.677Z,6.07
2023-05-12T16:32:20.297Z,5.20
2023-05-12T16:34:47.022Z,4.05
2023-05-12T16:37:13.827Z,6.18
2023-05-12T16:39:40.182Z,4.95
2023-05-12T16:42:06.943Z,3.83
2023-05-12T16:44:33.531Z,5.70
2023-05-12T16:46:59.904Z,5.25
2023-05-12T16:49:26.251Z,4.80
2023-05-12T16:51:52.734Z,4.32
2023-05-12T16:54:19.123Z,4.35
2023-05-12T16:56:45.592Z,4.30
2023-05-12T16:59:11.968Z,4.75
2023-05-12T17:01:39.446Z,6.35
2023-05-12T17:04:07.916Z,4.22
2023-05-12T17:06:34.463Z,6.30
2023-05-12T17:09:01.393Z,4.83
2023-05-12T17:11:27.771Z,4.50
2023-05-12T17:13:54.152Z,6.15
2023-05-12T17:16:20.644Z,6.82
2023-05-12T17:21:16.485Z,6.07
2023-05-12T17:23:42.945Z,7.88
2023-05-12T17:26:09.331Z,4.82
2023-05-12T17:28:35.725Z,6.45
2023-05-12T17:31:02.209Z,6.95
2023-05-12T17:33:29.425Z,5.00
2023-05-12T17:36:10.799Z,5.03
2023-05-12T17:38:39.886Z,4.82
2023-05-12T17:41:06.382Z,5.78
2023-05-12T17:43:32.722Z,5.03
2023-05-12T17:46:00.408Z,5.80
2023-05-12T17:48:26.872Z,4.90
2023-05-12T17:50:53.312Z,5.45
2023-05-12T17:53:19.626Z,4.72
2023-05-12T17:55:46.089Z,4.45
2023-05-12T17:58:12.598Z,5.60
2023-05-12T18:00:39.047Z,5.20
2023-05-12T18:03:05.601Z,5.82
2023-05-12T18:05:32.706Z,5.40
2023-05-12T18:08:00.190Z,5.20
2023-05-12T18:10:26.817Z,5.03
2023-05-12T18:12:53.778Z,4.32
2023-05-12T18:15:24.204Z,4.55
2023-05-12T18:17:50.656Z,3.70
2023-05-12T18:20:17.664Z,6.10
2023-05-12T18:22:44.315Z,3.13
2023-05-12T18:25:12.699Z,3.28
2023-05-12T18:27:39.010Z,4.97
2023-05-12T18:30:05.953Z,3.15
2023-05-12T18:32:32.849Z,3.05
2023-05-12T18:34:59.606Z,4.23
2023-05-12T18:37:25.949Z,2.65
2023-05-12T18:39:54.303Z,4.10
2023-05-12T18:42:20.947Z,2.88
2023-05-12T18:44:47.352Z,3.08
2023-05-12T18:47:13.734Z,3.07
2023-05-12T18:49:40.066Z,2.70
2023-05-12T18:52:06.468Z,5.45
2023-05-12T18:54:32.830Z,4.75
2023-05-12T18:56:59.160Z,4.43
2023-05-12T18:59:25.549Z,3.63
2023-05-12T19:01:52.009Z,3.72
2023-05-12T19:04:19.537Z,5.05
2023-05-12T19:06:46.038Z,4.38
2023-05-12T19:09:12.458Z,4.03
2023-05-12T19:11:38.876Z,3.53
2023-05-12T19:14:05.437Z,3.17
2023-05-12T19:16:33.640Z,5.43
2023-05-12T19:19:01.811Z,6.18
2023-05-12T19:21:28.390Z,4.15
2023-05-12T19:23:55.802Z,4.27
2023-05-12T19:26:22.166Z,6.57
2023-05-12T19:28:48.572Z,6.07
2023-05-12T19:31:15.019Z,4.13
2023-05-12T19:33:41.536Z,3.05
2023-05-12T19:36:08.092Z,3.17
2023-05-12T19:38:34.542Z,3.70
2023-05-12T19:41:00.968Z,5.63
2023-05-12T19:43:27.354Z,5.30
2023-05-12T19:45:54.183Z,4.95
2023-05-12T19:48:21.293Z,5.50
2023-05-12T19:50:47.812Z,4.95
2023-05-12T19:53:14.193Z,3.80
2023-05-12T19:55:40.655Z,4.90
2023-05-12T19:58:08.839Z,5.88
2023-05-12T20:00:36.448Z,4.93
2023-05-12T20:03:05.549Z,5.65
2023-05-12T20:05:35.448Z,4.65
2023-05-12T20:08:01.808Z,4.80
2023-05-12T20:10:28.164Z,7.07
2023-05-12T20:12:55.186Z,8.27
2023-05-12T20:15:21.925Z,9.38
2023-05-12T20:17:48.585Z,5.80
2023-05-12T20:20:15.054Z,5.63
2023-05-12T20:22:41.456Z,4.63
2023-05-12T20:25:08.227Z,5.60
2023-05-12T20:27:34.604Z,6.82
2023-05-12T20:30:01.057Z,5.95
2023-05-12T20:32:27.520Z,6.70
2023-05-12T20:34:53.987Z,5.60
2023-05-12T20:37:20.444Z,5.13
2023-05-12T20:39:46.919Z,5.18
2023-05-12T20:42:13.931Z,6.60
2023-05-12T20:44:40.658Z,7.47
2023-05-12T20:47:07.224Z,6.85
2023-05-12T20:49:33.702Z,7.07
2023-05-12T20:52:00.174Z,7.25
2023-05-12T20:54:26.641Z,6.47
2023-05-12T20:56:53.037Z,6.22
2023-05-12T20:59:19.990Z,7.38
2023-05-12T21:01:46.622Z,7.47
2023-05-12T21:04:13.255Z,9.18
2023-05-12T21:06:40.219Z,6.80
2023-05-12T21:09:06.655Z,7.85
2023-05-12T21:11:33.183Z,8.15
2023-05-12T21:13:59.781Z,6.57
2023-05-12T21:16:26.314Z,7.07
2023-05-12T21:18:52.841Z,8.98
2023-05-12T21:21:19.302Z,9.82
2023-05-12T21:23:46.172Z,7.72
2023-05-12T21:26:12.562Z,6.13
2023-05-12T21:28:38.994Z,6.85
2023-05-12T21:31:05.448Z,7.70
2023-05-12T21:33:33.222Z,7.28
2023-05-12T21:35:59.637Z,9.82
2023-05-12T21:38:26.057Z,8.67
2023-05-12T21:40:52.826Z,7.78
2023-05-12T21:43:19.230Z,8.60
2023-05-12T21:45:45.840Z,8.52
2023-05-12T21:48:12.683Z,8.20
2023-05-12T21:50:39.167Z,7.80
2023-05-12T21:53:05.604Z,9.55
2023-05-12T21:55:32.494Z,6.45
2023-05-12T21:57:58.845Z,7.82
2023-05-12T22:00:26.071Z,7.78
2023-05-12T22:02:52.574Z,7.63
2023-05-12T22:05:19.123Z,6.97
2023-05-12T22:07:46.454Z,8.70
2023-05-12T22:10:13.102Z,6.30
2023-05-12T22:12:40.245Z,7.97
2023-05-12T22:15:07.668Z,7.80
2023-05-12T22:17:34.099Z,9.25
2023-05-12T22:20:00.464Z,7.28
2023-05-12T22:22:26.953Z,7.80
2023-05-12T22:24:53.453Z,6.15
2023-05-12T22:27:22.319Z,7.47
2023-05-12T22:29:48.964Z,10.23
2023-05-12T22:32:16.502Z,6.45
2023-05-12T22:34:42.939Z,8.52
2023-05-12T22:37:09.369Z,5.90
2023-05-12T22:39:35.746Z,6.33
2023-05-12T22:42:03.181Z,7.38
2023-05-12T22:44:29.767Z,6.60
2023-05-12T22:46:56.214Z,5.53
2023-05-12T22:49:22.607Z,7.68
2023-05-12T22:51:49.009Z,6.67
2023-05-12T22:54:15.746Z,5.75
2023-05-12T22:56:42.312Z,5.47
2023-05-12T22:59:08.705Z,6.70
2023-05-12T23:01:35.087Z,6.00
2023-05-12T23:04:01.499Z,5.63
2023-05-12T23:06:27.933Z,7.45
2023-05-12T23:08:54.418Z,7.65
2023-05-12T23:11:21.412Z,5.63
2023-05-12T23:13:47.802Z,6.10
2023-05-12T23:16:14.207Z,5.27
2023-05-12T23:18:40.670Z,7.10
2023-05-12T23:21:07.199Z,5.78
2023-05-12T23:23:33.602Z,5.70
2023-05-12T23:26:00.023Z,6.63
2023-05-12T23:28:26.353Z,4.93
2023-05-12T23:30:52.717Z,7.15
2023-05-12T23:33:19.159Z,6.78
2023-05-12T23:35:45.623Z,4.95
2023-05-12T23:38:11.954Z,5.35
2023-05-12T23:40:39.339Z,5.40
2023-05-12T23:43:06.668Z,6.20
2023-05-12T23:45:33.461Z,5.80
2023-05-12T23:48:00.847Z,4.35
2023-05-12T23:50:27.342Z,7.43
2023-05-12T23:52:53.955Z,4.77
2023-05-12T23:55:21.534Z,5.78
2023-05-12T23:57:48.829Z,7.13
